createdAt,value
2022-12-26T00:01:06.366Z,9.05
2022-12-26T00:03:33.593Z,10.52
2022-12-26T00:06:01.017Z,8.57
2022-12-26T00:08:28.333Z,10.70
2022-12-26T00:10:55.477Z,11.48
2022-12-26T00:13:39.621Z,10.43
2022-12-26T00:16:09.833Z,8.18
2022-12-26T00:18:37.627Z,7.88
2022-12-26T00:21:05.579Z,10.52
2022-12-26T00:23:34.847Z,13.18
2022-12-26T00:26:04.323Z,10.55
2022-12-26T00:28:31.881Z,12.50
2022-12-26T00:30:59.313Z,12.63
2022-12-26T00:33:27.599Z,10.73
2022-12-26T00:35:54.742Z,13.70
2022-12-26T00:38:21.891Z,13.98
2022-12-26T00:40:49.096Z,27.88
2022-12-26T00:43:16.181Z,15.52
2022-12-26T00:45:45.967Z,11.98
2022-12-26T00:48:13.173Z,9.02
2022-12-26T00:50:40.346Z,6.97
2022-12-26T00:53:07.485Z,11.07
2022-12-26T00:55:34.751Z,15.02
2022-12-26T00:58:02.227Z,7.85
2022-12-26T01:00:29.516Z,13.52
2022-12-26T01:03:00.359Z,10.73
2022-12-26T01:05:28.472Z,14.43
2022-12-26T01:08:19.582Z,8.60
2022-12-26T01:10:47.316Z,10.63
2022-12-26T01:13:15.232Z,12.30
2022-12-26T01:15:54.193Z,5.90
2022-12-26T01:18:21.676Z,12.10
2022-12-26T01:20:49.731Z,9.77
2022-12-26T01:23:18.521Z,7.95
2022-12-26T01:26:18.901Z,13.23
2022-12-26T01:28:33.063Z,14.85
2022-12-26T01:31:04.290Z,6.43
2022-12-26T01:33:32.452Z,10.60
2022-12-26T01:35:59.963Z,10.85
2022-12-26T01:38:27.695Z,12.70
2022-12-26T01:41:14.863Z,13.80
2022-12-26T01:44:00.063Z,14.82
2022-12-26T01:46:46.044Z,8.50
2022-12-26T01:49:22.053Z,8.02
2022-12-26T01:51:55.215Z,11.93
2022-12-26T01:54:41.289Z,8.60
2022-12-26T01:57:30.885Z,16.88
2022-12-26T02:00:01.400Z,10.48
2022-12-26T02:02:30.641Z,15.20
2022-12-26T02:05:17.050Z,7.70
2022-12-26T02:07:46.396Z,13.45
2022-12-26T02:10:20.228Z,8.77
2022-12-26T02:12:49.856Z,12.40
2022-12-26T02:15:18.613Z,14.57
2022-12-26T02:17:46.994Z,19.85
2022-12-26T02:20:22.157Z,8.63
2022-12-26T02:23:11.159Z,8.82
2022-12-26T02:25:59.252Z,12.02
2022-12-26T02:28:52.151Z,7.15
2022-12-26T02:31:27.347Z,9.02
2022-12-26T02:34:03.448Z,14.80
2022-12-26T02:36:53.070Z,13.65
2022-12-26T02:39:43.755Z,12.50
2022-12-26T02:42:33.318Z,11.50
2022-12-26T02:45:42.792Z,9.25
2022-12-26T02:48:23.441Z,12.50
2022-12-26T02:51:30.841Z,16.05
2022-12-26T02:54:25.160Z,10.13
2022-12-26T02:57:15.489Z,9.77
2022-12-26T03:00:26.906Z,14.60
2022-12-26T03:03:17.554Z,13.65
2022-12-26T03:06:09.279Z,11.52
2022-12-26T03:08:57.549Z,11.60
2022-12-26T03:11:49.075Z,16.67
2022-12-26T03:14:29.777Z,11.02
2022-12-26T03:17:21.901Z,9.93
2022-12-26T03:19:59.521Z,13.52
2022-12-26T03:22:47.086Z,11.70
2022-12-26T03:25:55.871Z,9.98
2022-12-26T03:28:24.568Z,11.55
2022-12-26T03:30:53.689Z,9.25
2022-12-26T03:33:44.576Z,13.95
2022-12-26T03:36:34.689Z,14.23
2022-12-26T03:40:02.466Z,7.93
2022-12-26T03:42:57.719Z,7.90
2022-12-26T03:46:08.980Z,12.13
2022-12-26T03:49:06.951Z,9.63
2022-12-26T03:52:05.469Z,5.80
2022-12-26T03:55:17.549Z,4.30
2022-12-26T03:58:29.590Z,5.95
2022-12-26T04:01:18.831Z,10.55
2022-12-26T04:04:06.667Z,7.55
2022-12-26T04:07:09.705Z,8.80
2022-12-26T04:10:10.330Z,6.03
2022-12-26T04:13:02.617Z,5.50
2022-12-26T04:16:00.595Z,9.40
2022-12-26T04:19:06.529Z,6.40
2022-12-26T04:22:25.428Z,2.90
2022-12-26T04:25:50.910Z,6.25
2022-12-26T04:28:40.212Z,2.50
2022-12-26T04:31:30.059Z,2.55
2022-12-26T04:34:20.372Z,3.40
2022-12-26T04:37:15.210Z,2.80
2022-12-26T04:40:05.543Z,1.63
2022-12-26T04:42:53.089Z,4.22
2022-12-26T04:45:21.744Z,2.97
2022-12-26T04:48:09.961Z,3.33
2022-12-26T04:50:37.158Z,2.67
2022-12-26T04:53:04.451Z,2.45
2022-12-26T04:55:33.386Z,2.20
2022-12-26T04:58:00.711Z,2.15
2022-12-26T05:00:28.787Z,3.58
2022-12-26T05:03:19.241Z,5.82
2022-12-26T05:06:08.431Z,5.78
2022-12-26T05:09:02.417Z,5.20
2022-12-26T05:11:31.717Z,4.57
2022-12-26T05:14:00.085Z,1.42
2022-12-26T05:16:46.778Z,3.90
2022-12-26T05:19:35.089Z,2.88
2022-12-26T05:22:23.509Z,8.93
2022-12-26T05:25:09.652Z,2.30
2022-12-26T05:28:01.206Z,2.70
2022-12-26T05:30:28.694Z,3.17
2022-12-26T05:33:14.156Z,2.47
2022-12-26T05:35:41.431Z,5.40
2022-12-26T05:38:11.129Z,3.17
2022-12-26T05:40:38.443Z,1.92
2022-12-26T05:43:05.661Z,0.52
2022-12-26T05:45:32.842Z,0.63
2022-12-26T05:48:00.992Z,0.30
2022-12-26T05:50:28.782Z,0.35
2022-12-26T05:52:59.665Z,0.38
2022-12-26T05:55:27.244Z,2.17
2022-12-26T05:57:54.523Z,0.55
2022-12-26T06:00:22.013Z,1.65
2022-12-26T06:02:49.365Z,0.95
2022-12-26T06:05:17.143Z,0.80
2022-12-26T06:07:44.542Z,1.48
2022-12-26T06:10:11.827Z,2.10
2022-12-26T06:12:39.086Z,1.83
2022-12-26T06:15:06.788Z,1.13
2022-12-26T06:17:33.890Z,2.33
2022-12-26T06:20:01.023Z,2.75
2022-12-26T06:22:31.201Z,1.77
2022-12-26T06:24:58.486Z,3.35
2022-12-26T06:27:25.634Z,1.60
2022-12-26T06:29:52.722Z,4.03
2022-12-26T06:32:19.865Z,1.77
2022-12-26T06:34:48.312Z,6.70
2022-12-26T06:37:15.500Z,1.00
2022-12-26T06:39:42.674Z,2.90
2022-12-26T06:42:09.882Z,2.58
2022-12-26T06:44:37.087Z,2.45
2022-12-26T06:47:04.433Z,2.03
2022-12-26T06:49:33.183Z,4.20
2022-12-26T06:52:00.698Z,1.73
2022-12-26T06:54:27.821Z,1.40
2022-12-26T06:56:54.906Z,1.00
2022-12-26T06:59:22.034Z,0.77
2022-12-26T07:01:49.365Z,2.15
2022-12-26T07:04:16.602Z,3.35
2022-12-26T07:06:43.700Z,2.60
2022-12-26T07:09:14.594Z,1.00
2022-12-26T07:11:44.590Z,0.57
2022-12-26T07:14:12.056Z,3.95
2022-12-26T07:16:41.806Z,1.30
2022-12-26T07:19:11.788Z,2.15
2022-12-26T07:21:41.068Z,1.25
2022-12-26T07:24:15.885Z,2.92
2022-12-26T07:26:43.906Z,2.13
2022-12-26T07:29:12.307Z,1.10
2022-12-26T07:31:40.346Z,1.25
2022-12-26T07:34:08.141Z,3.17
2022-12-26T07:36:35.400Z,5.15
2022-12-26T07:39:02.725Z,2.55
2022-12-26T07:41:48.576Z,3.10
2022-12-26T07:44:15.770Z,4.28
2022-12-26T07:46:43.879Z,3.90
2022-12-26T07:49:12.598Z,3.58
2022-12-26T07:51:40.933Z,1.85
2022-12-26T07:54:11.334Z,4.32
2022-12-26T07:56:40.326Z,6.03
2022-12-26T07:59:11.918Z,5.40
2022-12-26T08:01:39.263Z,9.15
2022-12-26T08:04:06.460Z,3.42
2022-12-26T08:06:34.722Z,5.45
2022-12-26T08:09:01.877Z,3.17
2022-12-26T08:11:31.720Z,2.38
2022-12-26T08:13:58.892Z,5.38
2022-12-26T08:16:26.356Z,2.28
2022-12-26T08:18:53.790Z,2.88
2022-12-26T08:21:21.051Z,5.40
2022-12-26T08:23:48.676Z,3.22
2022-12-26T08:26:20.906Z,3.67
2022-12-26T08:31:15.439Z,4.60
2022-12-26T08:33:42.558Z,1.73
2022-12-26T08:36:12.107Z,2.75
2022-12-26T08:38:40.539Z,4.22
2022-12-26T08:41:07.735Z,3.45
2022-12-26T08:44:25.589Z,4.18
2022-12-26T08:46:25.001Z,3.10
2022-12-26T08:48:55.208Z,4.82
2022-12-26T08:51:24.923Z,1.92
2022-12-26T08:53:54.171Z,1.88
2022-12-26T08:56:24.430Z,4.45
2022-12-26T08:58:51.628Z,3.05
2022-12-26T09:01:23.596Z,3.65
2022-12-26T09:03:58.430Z,1.65
2022-12-26T09:06:26.495Z,6.13
2022-12-26T09:08:56.506Z,8.02
2022-12-26T09:11:30.208Z,6.55
2022-12-26T09:13:59.896Z,6.03
2022-12-26T09:16:37.788Z,5.78
2022-12-26T09:19:06.931Z,4.20
2022-12-26T09:21:37.152Z,2.22
2022-12-26T09:24:07.033Z,1.42
2022-12-26T09:26:34.561Z,6.57
2022-12-26T09:29:02.213Z,2.88
2022-12-26T09:31:33.321Z,2.17
2022-12-26T09:34:04.212Z,3.65
2022-12-26T09:36:40.419Z,4.68
2022-12-26T09:39:09.000Z,5.95
2022-12-26T09:41:58.458Z,4.75
2022-12-26T09:44:56.588Z,1.38
2022-12-26T09:47:32.626Z,1.00
2022-12-26T09:49:59.790Z,1.15
2022-12-26T09:52:48.303Z,3.97
2022-12-26T09:55:49.258Z,3.50
2022-12-26T09:58:19.236Z,3.28
2022-12-26T10:00:55.021Z,1.55
2022-12-26T10:03:24.288Z,4.03
2022-12-26T10:06:19.399Z,1.45
2022-12-26T10:09:25.953Z,1.98
2022-12-26T10:12:05.621Z,1.48
2022-12-26T10:14:51.564Z,3.50
2022-12-26T10:18:12.177Z,1.42
2022-12-26T10:20:45.157Z,1.88
2022-12-26T10:23:32.061Z,0.98
2022-12-26T10:26:41.115Z,2.00
2022-12-26T10:29:08.249Z,4.72
2022-12-26T10:31:42.409Z,3.35
2022-12-26T10:34:15.665Z,1.50
2022-12-26T10:36:55.176Z,2.67
2022-12-26T10:39:27.315Z,2.45
2022-12-26T10:44:27.853Z,1.35
2022-12-26T10:47:23.222Z,4.07
2022-12-26T10:49:50.883Z,3.10
2022-12-26T10:52:21.330Z,2.75
2022-12-26T10:55:29.439Z,4.57
2022-12-26T10:57:44.102Z,5.88
2022-12-26T11:00:20.165Z,2.42
2022-12-26T11:03:03.062Z,3.58
2022-12-26T11:05:57.467Z,6.07
2022-12-26T11:08:43.323Z,6.57
2022-12-26T11:11:22.210Z,4.25
2022-12-26T11:14:02.827Z,2.67
2022-12-26T11:16:40.181Z,4.50
2022-12-26T11:19:25.740Z,6.45
2022-12-26T11:21:54.279Z,4.38
2022-12-26T11:24:21.967Z,3.17
2022-12-26T11:26:49.483Z,7.50
2022-12-26T11:29:24.405Z,4.35
2022-12-26T11:32:02.162Z,4.55
2022-12-26T11:34:46.397Z,3.00
2022-12-26T11:37:44.689Z,6.60
2022-12-26T11:40:27.617Z,4.13
2022-12-26T11:42:57.809Z,6.47
2022-12-26T11:45:37.078Z,10.20
2022-12-26T11:48:18.746Z,4.70
2022-12-26T11:50:46.771Z,5.25
2022-12-26T11:53:18.525Z,4.28
2022-12-26T11:55:46.361Z,4.95
2022-12-26T11:58:21.047Z,10.95
2022-12-26T12:00:50.955Z,4.60
2022-12-26T12:03:36.416Z,2.22
2022-12-26T12:06:09.336Z,8.35
2022-12-26T12:09:06.401Z,6.40
2022-12-26T12:11:56.570Z,6.18
2022-12-26T12:14:46.895Z,10.30
2022-12-26T12:17:32.740Z,4.20
2022-12-26T12:20:09.388Z,6.25
2022-12-26T12:22:51.703Z,3.15
2022-12-26T12:25:40.352Z,5.78
2022-12-26T12:28:14.881Z,7.28
2022-12-26T12:31:00.680Z,5.18
2022-12-26T12:33:43.535Z,2.80
2022-12-26T12:36:24.216Z,3.35
2022-12-26T12:39:42.787Z,4.88
2022-12-26T12:42:23.604Z,3.08
2022-12-26T12:45:22.287Z,2.40
2022-12-26T12:48:10.914Z,4.55
2022-12-26T12:50:56.704Z,9.20
2022-12-26T12:53:42.074Z,5.38
2022-12-26T12:56:14.277Z,5.80
2022-12-26T13:01:42.860Z,4.13
2022-12-26T13:04:25.152Z,2.05
2022-12-26T13:06:59.781Z,2.25
2022-12-26T13:09:35.340Z,5.22
2022-12-26T13:12:07.393Z,9.05
2022-12-26T13:14:42.328Z,5.30
2022-12-26T13:17:19.114Z,4.57
2022-12-26T13:20:02.851Z,4.78
2022-12-26T13:23:02.177Z,2.88
2022-12-26T13:25:35.870Z,6.18
2022-12-26T13:28:12.075Z,2.70
2022-12-26T13:30:39.577Z,3.40
2022-12-26T13:33:07.032Z,6.07
2022-12-26T13:35:55.306Z,3.22
2022-12-26T13:38:24.241Z,4.43
2022-12-26T13:41:18.041Z,5.82
2022-12-26T13:44:05.650Z,5.05
2022-12-26T13:46:35.870Z,2.40
2022-12-26T13:49:04.223Z,5.85
2022-12-26T13:51:50.008Z,3.47
2022-12-26T13:54:18.160Z,5.13
2022-12-26T13:56:46.202Z,2.08
2022-12-26T13:59:18.289Z,5.38
2022-12-26T14:01:55.379Z,6.97
2022-12-26T14:04:38.117Z,7.13
2022-12-26T14:09:56.059Z,8.38
2022-12-26T14:12:38.019Z,3.40
2022-12-26T14:15:07.917Z,2.97
2022-12-26T14:17:50.945Z,5.25
2022-12-26T14:20:18.085Z,4.70
2022-12-26T14:23:12.312Z,4.22
2022-12-26T14:25:56.741Z,7.25
2022-12-26T14:28:47.468Z,5.30
2022-12-26T14:31:29.531Z,4.05
2022-12-26T14:34:10.656Z,3.20
2022-12-26T14:36:45.708Z,18.73
2022-12-26T14:39:28.476Z,5.05
2022-12-26T14:45:04.260Z,5.97
2022-12-26T14:47:49.056Z,4.32
2022-12-26T14:50:37.311Z,4.05
2022-12-26T14:53:29.290Z,4.70
2022-12-26T14:56:10.494Z,9.30
2022-12-26T14:58:39.996Z,7.00
2022-12-26T15:01:13.179Z,6.63
2022-12-26T15:03:46.361Z,4.07
2022-12-26T15:06:19.629Z,4.10
2022-12-26T15:09:17.529Z,7.13
2022-12-26T15:12:02.716Z,6.45
2022-12-26T15:14:48.815Z,7.22
2022-12-26T15:17:41.398Z,6.30
2022-12-26T15:23:06.466Z,6.07
2022-12-26T15:25:52.201Z,6.28
2022-12-26T15:28:51.044Z,3.92
2022-12-26T15:31:37.113Z,7.90
2022-12-26T15:34:33.617Z,5.60
2022-12-26T15:37:15.217Z,8.10
2022-12-26T15:40:23.054Z,3.72
2022-12-26T15:43:15.046Z,7.78
2022-12-26T15:46:06.395Z,6.47
2022-12-26T15:48:51.683Z,3.70
2022-12-26T15:51:40.673Z,3.88
2022-12-26T15:54:41.383Z,3.78
2022-12-26T15:57:41.088Z,7.72
2022-12-26T16:00:36.640Z,6.32
2022-12-26T16:03:12.902Z,5.30
2022-12-26T16:05:50.617Z,7.78
2022-12-26T16:08:36.663Z,5.18
2022-12-26T16:11:22.757Z,16.70
2022-12-26T16:13:55.738Z,7.30
2022-12-26T16:16:31.848Z,5.95
2022-12-26T16:19:14.562Z,2.97
2022-12-26T16:22:01.080Z,5.03
2022-12-26T16:24:28.543Z,8.18
2022-12-26T16:27:01.662Z,6.30
2022-12-26T16:29:31.176Z,4.18
2022-12-26T16:32:06.730Z,7.60
2022-12-26T16:34:37.092Z,7.53
2022-12-26T16:37:05.696Z,6.05
2022-12-26T16:39:33.313Z,4.78
2022-12-26T16:42:07.872Z,3.70
2022-12-26T16:44:39.067Z,7.20
2022-12-26T16:47:12.691Z,2.50
2022-12-26T16:49:43.439Z,7.32
2022-12-26T16:52:30.207Z,6.93
2022-12-26T16:54:57.446Z,4.80
2022-12-26T16:57:24.728Z,6.03
2022-12-26T16:59:59.542Z,4.40
2022-12-26T17:02:34.315Z,7.15
2022-12-26T17:05:23.018Z,8.05
2022-12-26T17:07:52.011Z,5.00
2022-12-26T17:10:29.361Z,2.42
2022-12-26T17:12:59.334Z,4.97
2022-12-26T17:15:30.961Z,3.53
2022-12-26T17:18:40.681Z,5.28
2022-12-26T17:21:23.634Z,10.60
2022-12-26T17:24:26.723Z,2.58
2022-12-26T17:27:08.563Z,3.75
2022-12-26T17:29:55.877Z,3.13
2022-12-26T17:32:41.227Z,2.75
2022-12-26T17:35:15.308Z,4.03
2022-12-26T17:37:43.746Z,5.95
2022-12-26T17:40:14.094Z,3.83
2022-12-26T17:43:02.814Z,3.28
2022-12-26T17:45:30.842Z,2.55
2022-12-26T17:48:00.118Z,5.20
2022-12-26T17:50:36.989Z,2.63
2022-12-26T17:53:06.937Z,5.30
2022-12-26T17:55:34.991Z,3.47
2022-12-26T17:58:02.165Z,3.85
2022-12-26T18:00:29.813Z,5.55
2022-12-26T18:02:57.288Z,3.13
2022-12-26T18:05:24.610Z,2.58
2022-12-26T18:07:52.381Z,4.47
2022-12-26T18:10:23.344Z,5.00
2022-12-26T18:12:51.331Z,5.30
2022-12-26T18:15:19.134Z,4.78
2022-12-26T18:17:48.606Z,6.78
2022-12-26T18:20:19.559Z,4.82
2022-12-26T18:22:47.836Z,6.22
2022-12-26T18:25:21.090Z,4.25
2022-12-26T18:27:48.973Z,4.28
2022-12-26T18:30:21.364Z,5.18
2022-12-26T18:32:50.388Z,7.43
2022-12-26T18:35:18.833Z,4.50
2022-12-26T18:37:52.042Z,2.05
2022-12-26T18:40:39.175Z,3.75
2022-12-26T18:43:08.208Z,3.88
2022-12-26T18:45:38.128Z,7.32
2022-12-26T18:48:07.424Z,4.20
2022-12-26T18:50:35.470Z,4.03
2022-12-26T18:53:03.179Z,4.00
2022-12-26T18:55:30.599Z,4.65
2022-12-26T18:57:57.849Z,5.93
2022-12-26T19:00:25.737Z,4.95
2022-12-26T19:02:55.609Z,6.13
2022-12-26T19:05:26.310Z,4.35
2022-12-26T19:07:54.263Z,6.78
2022-12-26T19:10:24.662Z,4.35
2022-12-26T19:12:52.031Z,5.35
2022-12-26T19:15:20.228Z,5.07
2022-12-26T19:17:47.455Z,3.13
2022-12-26T19:20:23.769Z,3.40
2022-12-26T19:22:52.414Z,5.53
2022-12-26T19:25:21.905Z,5.45
2022-12-26T19:27:50.055Z,4.65
2022-12-26T19:30:18.550Z,2.83
2022-12-26T19:32:45.846Z,6.00
2022-12-26T19:35:13.703Z,5.00
2022-12-26T19:37:41.289Z,4.22
2022-12-26T19:40:09.716Z,3.65
2022-12-26T19:42:38.423Z,3.58
2022-12-26T19:45:07.755Z,4.40
2022-12-26T19:47:35.520Z,4.93
2022-12-26T19:50:04.734Z,2.80
2022-12-26T19:52:32.001Z,5.38
2022-12-26T19:54:59.222Z,6.10
2022-12-26T19:57:26.681Z,5.57
2022-12-26T19:59:53.823Z,4.95
2022-12-26T20:02:21.059Z,5.40
2022-12-26T20:04:48.424Z,5.55
2022-12-26T20:07:15.554Z,5.90
2022-12-26T20:09:42.850Z,4.13
2022-12-26T20:12:10.207Z,3.80
2022-12-26T20:14:37.653Z,2.25
2022-12-26T20:17:07.481Z,4.75
2022-12-26T20:19:36.196Z,3.83
2022-12-26T20:22:04.726Z,3.72
2022-12-26T20:24:32.159Z,5.65
2022-12-26T20:27:01.777Z,6.78
2022-12-26T20:29:29.153Z,6.32
2022-12-26T20:31:57.287Z,3.75
2022-12-26T20:34:24.643Z,8.70
2022-12-26T20:36:51.816Z,3.25
2022-12-26T20:39:19.834Z,8.35
2022-12-26T20:41:47.699Z,3.53
2022-12-26T20:44:16.413Z,6.72
2022-12-26T20:46:44.491Z,6.20
2022-12-26T20:49:12.615Z,3.30
2022-12-26T20:51:42.337Z,2.25
2022-12-26T20:54:15.337Z,3.75
2022-12-26T20:56:51.144Z,4.05
2022-12-26T20:59:18.916Z,4.75
2022-12-26T21:01:46.218Z,5.78
2022-12-26T21:04:20.153Z,6.85
2022-12-26T21:06:47.973Z,2.55
2022-12-26T21:09:15.344Z,9.43
2022-12-26T21:11:43.708Z,4.30
2022-12-26T21:14:13.789Z,5.75
2022-12-26T21:16:47.166Z,3.30
2022-12-26T21:19:17.143Z,4.25
2022-12-26T21:21:50.162Z,4.25
2022-12-26T21:24:23.530Z,3.60
2022-12-26T21:26:51.268Z,3.50
2022-12-26T21:29:26.400Z,6.60
2022-12-26T21:31:54.161Z,5.95
2022-12-26T21:34:23.339Z,2.50
2022-12-26T21:37:10.443Z,5.72
2022-12-26T21:39:37.977Z,5.38
2022-12-26T21:42:06.684Z,4.88
2022-12-26T21:44:35.819Z,3.47
2022-12-26T21:47:04.474Z,7.50
2022-12-26T21:49:31.732Z,6.78
2022-12-26T21:52:01.868Z,3.75
2022-12-26T21:54:49.285Z,5.00
2022-12-26T21:57:18.074Z,3.50
2022-12-26T21:59:58.319Z,4.07
2022-12-26T22:02:50.436Z,5.57
2022-12-26T22:05:19.707Z,4.93
2022-12-26T22:07:47.363Z,3.83
2022-12-26T22:10:34.445Z,6.00
2022-12-26T22:13:03.077Z,4.43
2022-12-26T22:15:48.941Z,4.63
2022-12-26T22:18:16.688Z,3.25
2022-12-26T22:20:44.917Z,7.63
2022-12-26T22:23:13.511Z,4.75
2022-12-26T22:25:40.798Z,3.67
2022-12-26T22:28:08.121Z,8.55
2022-12-26T22:30:35.273Z,4.60
2022-12-26T22:33:02.428Z,4.57
2022-12-26T22:35:29.580Z,6.88
2022-12-26T22:37:56.857Z,4.35
2022-12-26T22:40:24.005Z,4.47
2022-12-26T22:42:51.184Z,3.42
2022-12-26T22:45:18.387Z,5.25
2022-12-26T22:47:45.546Z,7.55
2022-12-26T22:50:16.417Z,3.83
2022-12-26T22:52:44.129Z,6.18
2022-12-26T22:55:12.254Z,3.97
2022-12-26T22:57:39.605Z,3.13
2022-12-26T23:00:11.111Z,7.68
2022-12-26T23:02:38.684Z,6.13
2022-12-26T23:05:06.617Z,2.40
2022-12-26T23:07:33.963Z,7.80
2022-12-26T23:10:01.664Z,4.95
2022-12-26T23:12:44.734Z,6.07
2022-12-26T23:15:23.660Z,3.88
2022-12-26T23:18:15.256Z,2.22
2022-12-26T23:21:00.908Z,4.40
2022-12-26T23:23:28.325Z,4.28
2022-12-26T23:25:58.493Z,4.35
2022-12-26T23:28:44.113Z,2.30
2022-12-26T23:31:11.288Z,4.63
2022-12-26T23:33:38.586Z,4.85
2022-12-26T23:36:06.324Z,4.53
2022-12-26T23:38:33.752Z,3.80
2022-12-26T23:41:01.086Z,3.65
2022-12-26T23:43:28.528Z,4.40
2022-12-26T23:45:55.704Z,5.75
2022-12-26T23:48:22.873Z,1.80
2022-12-26T23:50:50.166Z,2.65
2022-12-26T23:53:17.350Z,3.60
2022-12-26T23:55:44.527Z,3.88
2022-12-26T23:58:11.668Z,5.20
